Time;durP1;ratioP1;P1;durP2;ratioP2;P2;SDS_P1;SDS_P2;PMS_P1;PMS_P2;Temp;Humidity;BMP_temperature;BMP_pressure;BME280_temperature;BME280_humidity;BME280_pressure;Samples;Min_cycle;Max_cycle;Signal;HPM_P1;HPM_P2
2022/09/21 00:00:41;;;;;;;0.00;0.00;;;;;;;;;;5022460;28;20649;-76
2022/09/21 00:03:09;;;;;;;0.10;0.10;;;;;;;;;;5018316;28;20243;-76
2022/09/21 00:05:36;;;;;;;0.00;0.00;;;;;;;;;;5021952;28;20595;-76
2022/09/21 00:08:04;;;;;;;0.00;0.00;;;;;;;;;;5017747;28;20200;-76
2022/09/21 00:10:34;;;;;;;0.00;0.00;;;;;;;;;;5019995;28;20271;-75
2022/09/21 00:13:02;;;;;;;0.00;0.00;;;;;;;;;;5025652;28;20774;-75
2022/09/21 00:15:30;;;;;;;0.00;0.00;;;;;;;;;;5022771;28;20752;-75
2022/09/21 00:17:58;;;;;;;0.00;0.00;;;;;;;;;;5023481;28;20610;-75
2022/09/21 00:20:27;;;;;;;0.00;0.00;;;;;;;;;;5020824;28;20630;-76
2022/09/21 00:22:54;;;;;;;0.00;0.00;;;;;;;;;;5014665;28;20742;-76
2022/09/21 00:25:22;;;;;;;0.10;0.10;;;;;;;;;;5021502;28;20714;-76
2022/09/21 00:27:51;;;;;;;0.00;0.00;;;;;;;;;;5017689;28;20214;-77
2022/09/21 00:30:19;;;;;;;0.10;0.10;;;;;;;;;;5018579;28;20961;-76
2022/09/21 00:32:46;;;;;;;0.00;0.00;;;;;;;;;;5018034;28;20675;-76
2022/09/21 00:35:13;;;;;;;0.00;0.00;;;;;;;;;;5024763;28;20623;-75
2022/09/21 00:37:41;;;;;;;0.00;0.00;;;;;;;;;;5023008;28;20631;-76
2022/09/21 00:40:09;;;;;;;0.10;0.10;;;;;;;;;;5018670;28;20650;-75
2022/09/21 00:42:37;;;;;;;0.10;0.10;;;;;;;;;;5020770;28;20647;-75
2022/09/21 00:45:07;;;;;;;0.10;0.10;;;;;;;;;;5023925;28;20613;-76
2022/09/21 00:47:36;;;;;;;0.10;0.10;;;;;;;;;;5037168;28;20645;-77
2022/09/21 00:50:05;;;;;;;0.10;0.10;;;;;;;;;;5022818;28;20610;-76
2022/09/21 00:52:34;;;;;;;0.10;0.10;;;;;;;;;;5021313;28;20712;-76
2022/09/21 00:55:05;;;;;;;0.00;0.00;;;;;;;;;;5020964;28;20808;-77
2022/09/21 00:57:34;;;;;;;0.00;0.00;;;;;;;;;;5022285;28;20200;-76
2022/09/21 01:00:03;;;;;;;0.00;0.00;;;;;;;;;;5018936;28;20249;-77
2022/09/21 01:02:33;;;;;;;0.00;0.00;;;;;;;;;;5024334;28;20992;-76
2022/09/21 01:05:00;;;;;;;0.10;0.10;;;;;;;;;;5019021;28;20639;-77
2022/09/21 01:07:28;;;;;;;0.00;0.00;;;;;;;;;;5022963;28;20604;-76
2022/09/21 01:09:57;;;;;;;0.10;0.10;;;;;;;;;;5020398;28;20639;-76
2022/09/21 01:12:30;;;;;;;0.00;0.00;;;;;;;;;;5020956;28;20782;-77
2022/09/21 01:15:02;;;;;;;0.10;0.10;;;;;;;;;;5020302;28;20681;-76
2022/09/21 01:17:37;;;;;;;0.00;0.00;;;;;;;;;;5026052;28;20689;-76
2022/09/21 01:20:24;;;;;;;0.00;0.00;;;;;;;;;;5024963;28;20637;-76
2022/09/21 01:22:58;;;;;;;0.10;0.10;;;;;;;;;;5021958;28;20658;-77
2022/09/21 01:25:32;;;;;;;0.10;0.10;;;;;;;;;;5024709;28;20626;-76
2022/09/21 01:28:07;;;;;;;0.10;0.10;;;;;;;;;;5020021;28;20625;-77
2022/09/21 01:30:37;;;;;;;0.10;0.10;;;;;;;;;;5024782;28;20691;-77
2022/09/21 01:33:07;;;;;;;0.07;0.07;;;;;;;;;;5025816;28;20669;-76
2022/09/21 01:35:38;;;;;;;0.10;0.10;;;;;;;;;;5023455;28;20660;-76
2022/09/21 01:38:07;;;;;;;0.00;0.00;;;;;;;;;;5026730;28;20692;-76
2022/09/21 01:40:36;;;;;;;0.00;0.00;;;;;;;;;;5019962;28;20610;-75
2022/09/21 01:43:05;;;;;;;0.00;0.00;;;;;;;;;;5023792;28;20655;-75
2022/09/21 01:45:34;;;;;;;0.00;0.00;;;;;;;;;;5025220;28;20628;-76
2022/09/21 01:48:03;;;;;;;0.00;0.00;;;;;;;;;;5026023;28;20643;-76
2022/09/21 01:50:33;;;;;;;0.00;0.00;;;;;;;;;;5021997;28;20619;-75
2022/09/21 01:53:02;;;;;;;0.10;0.10;;;;;;;;;;5025027;28;20774;-75
2022/09/21 01:55:34;;;;;;;0.10;0.10;;;;;;;;;;5019728;28;20614;-75
2022/09/21 01:58:06;;;;;;;0.10;0.10;;;;;;;;;;5025484;28;20623;-75
2022/09/21 02:00:34;;;;;;;0.10;0.10;;;;;;;;;;5022294;28;20618;-75
2022/09/21 02:03:06;;;;;;;0.10;0.10;;;;;;;;;;5024116;28;20641;-75
2022/09/21 02:05:33;;;;;;;0.10;0.10;;;;;;;;;;5023957;28;20627;-75
2022/09/21 02:08:01;;;;;;;0.10;0.10;;;;;;;;;;5024488;28;20619;-76
2022/09/21 02:10:31;;;;;;;0.10;0.10;;;;;;;;;;5022346;28;20653;-76
2022/09/21 02:13:01;;;;;;;0.10;0.10;;;;;;;;;;5020306;28;20678;-75
2022/09/21 02:15:34;;;;;;;0.10;0.10;;;;;;;;;;5024351;28;20619;-76
2022/09/21 02:18:05;;;;;;;0.03;0.03;;;;;;;;;;5023489;28;20637;-76
2022/09/21 02:20:37;;;;;;;0.10;0.10;;;;;;;;;;5026573;28;20609;-75
2022/09/21 02:23:07;;;;;;;0.00;0.00;;;;;;;;;;5021984;28;20764;-75
2022/09/21 02:25:40;;;;;;;0.10;0.10;;;;;;;;;;5018744;28;20677;-75
2022/09/21 02:28:11;;;;;;;0.10;0.10;;;;;;;;;;5026476;28;20626;-75
2022/09/21 02:30:40;;;;;;;0.00;0.00;;;;;;;;;;5024088;28;20618;-76
2022/09/21 02:33:11;;;;;;;0.10;0.10;;;;;;;;;;5021222;28;20666;-76
2022/09/21 02:35:42;;;;;;;0.00;0.00;;;;;;;;;;5025114;28;20627;-76
2022/09/21 02:38:11;;;;;;;0.10;0.10;;;;;;;;;;5018839;28;20754;-75
2022/09/21 02:40:42;;;;;;;0.00;0.00;;;;;;;;;;5019222;28;20638;-75
2022/09/21 02:43:12;;;;;;;0.10;0.10;;;;;;;;;;5025528;28;20662;-76
2022/09/21 02:45:44;;;;;;;0.00;0.00;;;;;;;;;;5023163;28;20638;-76
2022/09/21 02:48:13;;;;;;;0.00;0.00;;;;;;;;;;5026567;28;20622;-76
2022/09/21 02:50:44;;;;;;;0.00;0.00;;;;;;;;;;5020058;28;20738;-75
2022/09/21 02:53:13;;;;;;;0.10;0.10;;;;;;;;;;5018984;28;20780;-76
2022/09/21 02:55:40;;;;;;;0.10;0.10;;;;;;;;;;5020872;28;20713;-76
2022/09/21 02:58:10;;;;;;;0.00;0.00;;;;;;;;;;5022031;28;20627;-75
2022/09/21 03:00:38;;;;;;;0.10;0.10;;;;;;;;;;5024319;28;20622;-75
2022/09/21 03:03:16;;;;;;;0.10;0.10;;;;;;;;;;5022429;28;20658;-76
2022/09/21 03:05:45;;;;;;;0.10;0.10;;;;;;;;;;5023069;28;20677;-76
2022/09/21 03:08:12;;;;;;;0.10;0.10;;;;;;;;;;5024277;28;21052;-75
2022/09/21 03:10:40;;;;;;;0.10;0.10;;;;;;;;;;5023331;28;20647;-76
2022/09/21 03:13:09;;;;;;;0.10;0.10;;;;;;;;;;5019896;28;20690;-76
2022/09/21 03:15:36;;;;;;;0.10;0.10;;;;;;;;;;5022595;28;20634;-76
2022/09/21 03:18:04;;;;;;;0.10;0.10;;;;;;;;;;5019529;28;20635;-76
2022/09/21 03:20:33;;;;;;;0.00;0.00;;;;;;;;;;5017891;28;20626;-75
2022/09/21 03:23:02;;;;;;;0.00;0.00;;;;;;;;;;5022535;28;20766;-76
2022/09/21 03:25:30;;;;;;;0.10;0.10;;;;;;;;;;5023035;28;20623;-75
2022/09/21 03:27:57;;;;;;;0.10;0.10;;;;;;;;;;5023080;28;20670;-76
2022/09/21 03:30:27;;;;;;;0.00;0.00;;;;;;;;;;5025216;28;21258;-76
2022/09/21 03:32:54;;;;;;;0.10;0.10;;;;;;;;;;5022827;28;20663;-76
2022/09/21 03:35:24;;;;;;;0.10;0.10;;;;;;;;;;5021116;28;20626;-76
2022/09/21 03:37:51;;;;;;;0.10;0.10;;;;;;;;;;5025482;28;20625;-76
2022/09/21 03:40:20;;;;;;;0.10;0.10;;;;;;;;;;5023112;28;20626;-76
2022/09/21 03:42:48;;;;;;;0.10;0.10;;;;;;;;;;5023768;28;20651;-77
2022/09/21 03:45:15;;;;;;;0.10;0.10;;;;;;;;;;5021562;28;20615;-76
2022/09/21 03:47:43;;;;;;;0.10;0.10;;;;;;;;;;5021047;28;20647;-75
2022/09/21 03:50:12;;;;;;;0.00;0.00;;;;;;;;;;5021892;28;21097;-76
2022/09/21 03:52:40;;;;;;;0.10;0.10;;;;;;;;;;5022901;28;20671;-76
2022/09/21 03:55:09;;;;;;;0.10;0.10;;;;;;;;;;5022626;28;20629;-76
2022/09/21 03:57:38;;;;;;;0.10;0.10;;;;;;;;;;5022802;28;20618;-75
2022/09/21 04:00:07;;;;;;;0.00;0.00;;;;;;;;;;5018912;28;20678;-75
2022/09/21 04:02:35;;;;;;;0.10;0.10;;;;;;;;;;5036998;28;20769;-75
2022/09/21 04:05:02;;;;;;;0.10;0.10;;;;;;;;;;5020297;28;21196;-75
2022/09/21 04:07:32;;;;;;;0.10;0.10;;;;;;;;;;5023662;28;20614;-74
2022/09/21 04:10:00;;;;;;;0.10;0.10;;;;;;;;;;5021178;28;20661;-76
2022/09/21 04:12:27;;;;;;;0.10;0.10;;;;;;;;;;5022454;28;20702;-75
2022/09/21 04:14:56;;;;;;;0.10;0.10;;;;;;;;;;5023382;28;20622;-75
2022/09/21 04:17:23;;;;;;;0.00;0.00;;;;;;;;;;5022489;28;20633;-75
2022/09/21 04:19:51;;;;;;;0.10;0.10;;;;;;;;;;5026025;28;20610;-76
2022/09/21 04:22:18;;;;;;;0.10;0.10;;;;;;;;;;5019826;28;20663;-76
2022/09/21 04:24:45;;;;;;;0.10;0.10;;;;;;;;;;5026215;28;20610;-76
2022/09/21 04:27:13;;;;;;;0.10;0.10;;;;;;;;;;5021941;28;20619;-75
2022/09/21 04:29:41;;;;;;;0.10;0.10;;;;;;;;;;5025684;28;20613;-76
2022/09/21 04:32:10;;;;;;;0.00;0.00;;;;;;;;;;5021946;28;21383;-75
2022/09/21 04:34:38;;;;;;;0.10;0.10;;;;;;;;;;5021151;28;20654;-77
2022/09/21 04:37:06;;;;;;;0.10;0.10;;;;;;;;;;5022347;28;20630;-76
2022/09/21 04:39:34;;;;;;;0.00;0.00;;;;;;;;;;5017558;28;20606;-76
2022/09/21 04:42:01;;;;;;;0.10;0.10;;;;;;;;;;5022737;28;20654;-75
2022/09/21 04:44:31;;;;;;;0.00;0.00;;;;;;;;;;5027480;28;20603;-75
2022/09/21 04:46:59;;;;;;;0.00;0.00;;;;;;;;;;5024503;28;20615;-75
2022/09/21 04:49:28;;;;;;;0.10;0.10;;;;;;;;;;5026558;28;20631;-75
2022/09/21 04:51:55;;;;;;;0.00;0.00;;;;;;;;;;5021407;28;20763;-75
2022/09/21 04:54:22;;;;;;;0.10;0.10;;;;;;;;;;5027668;28;20654;-74
2022/09/21 04:56:51;;;;;;;0.10;0.10;;;;;;;;;;5025097;28;20711;-75
2022/09/21 04:59:19;;;;;;;0.10;0.10;;;;;;;;;;5019175;28;20619;-75
2022/09/21 05:01:49;;;;;;;0.10;0.10;;;;;;;;;;5015086;28;20682;-76
2022/09/21 05:04:16;;;;;;;0.10;0.10;;;;;;;;;;5025038;28;20604;-76
2022/09/21 05:06:45;;;;;;;0.10;0.10;;;;;;;;;;5026678;28;20623;-74
2022/09/21 05:11:58;;;;;;;0.10;0.10;;;;;;;;;;5023111;28;20649;-74
2022/09/21 05:14:25;;;;;;;0.00;0.00;;;;;;;;;;5026939;28;21228;-75
2022/09/21 05:16:53;;;;;;;0.10;0.10;;;;;;;;;;5022735;28;20627;-76
2022/09/21 05:19:21;;;;;;;0.10;0.10;;;;;;;;;;5024705;28;20667;-75
2022/09/21 05:21:50;;;;;;;0.10;0.10;;;;;;;;;;5027317;28;20737;-75
2022/09/21 05:24:18;;;;;;;0.10;0.10;;;;;;;;;;5020715;28;20630;-76
2022/09/21 05:26:45;;;;;;;0.10;0.10;;;;;;;;;;5020724;28;20611;-77
2022/09/21 05:29:13;;;;;;;0.10;0.10;;;;;;;;;;5025209;28;20635;-76
2022/09/21 05:31:42;;;;;;;0.10;0.10;;;;;;;;;;5021134;28;20650;-78
2022/09/21 05:34:18;;;;;;;0.10;0.10;;;;;;;;;;5024154;28;20746;-76
2022/09/21 05:36:49;;;;;;;0.00;0.00;;;;;;;;;;5025846;28;20629;-76
2022/09/21 05:39:19;;;;;;;0.10;0.10;;;;;;;;;;5023353;28;20623;-77
2022/09/21 05:41:47;;;;;;;0.10;0.10;;;;;;;;;;5026313;28;20720;-77
2022/09/21 05:44:17;;;;;;;0.10;0.10;;;;;;;;;;5025961;28;20633;-76
2022/09/21 05:46:49;;;;;;;0.10;0.10;;;;;;;;;;5025822;28;20623;-77
2022/09/21 05:49:19;;;;;;;0.10;0.10;;;;;;;;;;5024312;28;20615;-77
2022/09/21 05:51:51;;;;;;;0.10;0.10;;;;;;;;;;5025082;28;20658;-77
2022/09/21 05:54:22;;;;;;;0.10;0.10;;;;;;;;;;5026325;28;20654;-76
2022/09/21 05:56:51;;;;;;;0.07;0.07;;;;;;;;;;5021964;28;21077;-76
2022/09/21 05:59:29;;;;;;;0.10;0.10;;;;;;;;;;5023131;28;20627;-77
2022/09/21 06:01:59;;;;;;;0.10;0.10;;;;;;;;;;5022191;28;21280;-76
2022/09/21 06:04:30;;;;;;;0.10;0.10;;;;;;;;;;5037496;28;20847;-83
2022/09/21 06:06:57;;;;;;;0.10;0.10;;;;;;;;;;5028428;28;20602;-77
2022/09/21 06:09:26;;;;;;;0.10;0.10;;;;;;;;;;5026416;28;20668;-77
2022/09/21 06:11:54;;;;;;;0.10;0.10;;;;;;;;;;5023581;28;20678;-77
2022/09/21 06:14:24;;;;;;;0.00;0.00;;;;;;;;;;5023154;28;20716;-76
2022/09/21 06:16:52;;;;;;;0.00;0.00;;;;;;;;;;5024954;28;20623;-78
2022/09/21 06:19:20;;;;;;;0.10;0.10;;;;;;;;;;5023295;28;20735;-78
2022/09/21 06:21:47;;;;;;;0.10;0.10;;;;;;;;;;5027084;28;20716;-78
2022/09/21 06:24:14;;;;;;;0.10;0.10;;;;;;;;;;5026658;28;20634;-77
2022/09/21 06:26:44;;;;;;;0.00;0.00;;;;;;;;;;5022809;28;20631;-77
2022/09/21 06:29:11;;;;;;;0.00;0.00;;;;;;;;;;5023931;28;20614;-77
2022/09/21 06:31:39;;;;;;;0.10;0.10;;;;;;;;;;5038017;28;20650;-77
2022/09/21 06:34:06;;;;;;;0.10;0.10;;;;;;;;;;5024248;28;20646;-77
2022/09/21 06:36:34;;;;;;;0.10;0.10;;;;;;;;;;5023432;28;20657;-77
2022/09/21 06:39:01;;;;;;;0.10;0.10;;;;;;;;;;5021634;28;20622;-78
2022/09/21 06:41:28;;;;;;;0.00;0.00;;;;;;;;;;5022738;28;20712;-79
2022/09/21 06:43:57;;;;;;;0.00;0.00;;;;;;;;;;5021603;28;20676;-76
2022/09/21 06:46:24;;;;;;;0.00;0.00;;;;;;;;;;5023246;28;20680;-75
2022/09/21 06:48:53;;;;;;;0.10;0.10;;;;;;;;;;5022763;28;20614;-75
2022/09/21 06:51:20;;;;;;;0.00;0.00;;;;;;;;;;5026513;28;20657;-77
2022/09/21 06:53:48;;;;;;;0.00;0.00;;;;;;;;;;5024405;28;20767;-78
2022/09/21 06:56:15;;;;;;;0.10;0.10;;;;;;;;;;5020757;28;20269;-78
2022/09/21 06:58:43;;;;;;;0.10;0.10;;;;;;;;;;5024395;28;20200;-78
2022/09/21 07:01:12;;;;;;;0.00;0.00;;;;;;;;;;5024671;28;20239;-78
2022/09/21 07:03:41;;;;;;;0.00;0.00;;;;;;;;;;5023169;28;20623;-78
2022/09/21 07:06:10;;;;;;;0.10;0.10;;;;;;;;;;5021808;28;20196;-77
2022/09/21 07:08:38;;;;;;;0.00;0.00;;;;;;;;;;5028173;28;20199;-78
2022/09/21 07:11:06;;;;;;;0.10;0.10;;;;;;;;;;5020597;28;20204;-78
2022/09/21 07:13:34;;;;;;;0.10;0.10;;;;;;;;;;5026947;28;20223;-78
2022/09/21 07:16:04;;;;;;;0.00;0.00;;;13.30;99.90;;;;;;5028436;28;20195;-78
2022/09/21 07:18:33;;;;;;;0.10;0.10;;;;;;;;;;5021806;28;20291;-78
2022/09/21 07:21:03;;;;;;;0.00;0.00;;;;;;;;;;5023166;28;20196;-78
2022/09/21 07:23:31;;;;;;;0.10;0.10;;;;;;;;;;5023946;28;20196;-76
2022/09/21 07:26:02;;;;;;;0.00;0.00;;;;;;;;;;5021275;28;20196;-78
2022/09/21 07:28:30;;;;;;;0.00;0.00;;;;;;;;;;5021093;28;20235;-78
2022/09/21 07:30:57;;;;;;;0.00;0.00;;;;;;;;;;5027546;28;20196;-79
2022/09/21 07:33:25;;;;;;;0.10;0.10;;;;;;;;;;5024923;28;20235;-79
2022/09/21 07:35:55;;;;;;;0.00;0.00;;;;;;;;;;5025707;28;20655;-79
2022/09/21 07:38:23;;;;;;;0.00;0.00;;;;;;;;;;5027991;28;20228;-78
2022/09/21 07:40:51;;;;;;;0.10;0.10;;;;;;;;;;5025886;28;20196;-79
2022/09/21 07:43:18;;;;;;;0.00;0.00;;;;;;;;;;5021395;28;20224;-80
2022/09/21 07:45:53;;;;;;;0.00;0.00;;;;;;;;;;5020928;28;20223;-79
2022/09/21 07:48:21;;;;;;;0.00;0.00;;;;;;;;;;5020178;28;20204;-79
2022/09/21 07:50:48;;;;;;;0.00;0.00;;;13.90;99.90;;;;;;5025295;28;20644;-79
2022/09/21 07:53:17;;;;;;;0.00;0.00;;;15.80;99.90;;;;;;5022605;28;20224;-79
2022/09/21 07:55:45;;;;;;;0.07;0.07;;;;;;;;;;5022524;28;20226;-79
2022/09/21 08:00:58;;;;;;;0.00;0.00;;;;;;;;;;5022337;28;20198;-79
2022/09/21 08:03:25;;;;;;;0.00;0.00;;;;;;;;;;5026171;28;20234;-79
2022/09/21 08:05:53;;;;;;;0.00;0.00;;;;;;;;;;5025603;28;20200;-79
2022/09/21 08:08:22;;;;;;;0.00;0.00;;;;;;;;;;5025136;28;20204;-79
2022/09/21 08:10:51;;;;;;;0.00;0.00;;;;;;;;;;5026078;28;20200;-79
2022/09/21 08:13:19;;;;;;;0.00;0.00;;;;;;;;;;5026063;28;20224;-79
2022/09/21 08:15:46;;;;;;;0.00;0.00;;;15.80;99.90;;;;;;5028920;28;20215;-80
2022/09/21 08:18:13;;;;;;;0.00;0.00;;;16.70;99.90;;;;;;5030531;28;20199;-78
2022/09/21 08:20:41;;;;;;;0.00;0.00;;;;;;;;;;5032285;28;20254;-78
2022/09/21 08:23:09;;;;;;;0.00;0.00;;;;;;;;;;5032759;28;20231;-79
2022/09/21 08:25:37;;;;;;;0.00;0.00;;;16.80;99.90;;;;;;5027850;28;20666;-79
2022/09/21 08:28:04;;;;;;;0.00;0.00;;;17.00;99.90;;;;;;5028604;28;20207;-80
2022/09/21 08:30:33;;;;;;;0.00;0.00;;;17.00;99.90;;;;;;5027203;28;20204;-77
2022/09/21 08:33:00;;;;;;;0.00;0.00;;;;;;;;;;5033183;28;20227;-78
2022/09/21 08:35:28;;;;;;;0.00;0.00;;;;;;;;;;5028452;28;20227;-78
2022/09/21 08:37:55;;;;;;;0.00;0.00;;;;;;;;;;5022307;28;20269;-79
2022/09/21 08:40:22;;;;;;;0.00;0.00;;;;;;;;;;5032053;28;20191;-79
2022/09/21 08:42:56;;;;;;;0.00;0.00;;;;;;;;;;5034623;28;20221;-79
2022/09/21 08:45:26;;;;;;;0.00;0.00;;;;;;;;;;5034909;28;20199;-79
2022/09/21 08:47:54;;;;;;;0.00;0.00;;;;;;;;;;5032899;28;20200;-78
2022/09/21 08:50:30;;;;;;;0.00;0.00;;;;;;;;;;5026838;28;20219;-79
2022/09/21 08:53:01;;;;;;;0.00;0.00;;;;;;;;;;5033793;28;20277;-79
2022/09/21 08:55:29;;;;;;;0.00;0.00;;;;;;;;;;5031674;28;20230;-78
2022/09/21 08:57:59;;;;;;;0.00;0.00;;;;;;;;;;5033285;28;20223;-79
2022/09/21 09:00:27;;;;;;;0.00;0.00;;;;;;;;;;5030851;28;20196;-79
2022/09/21 09:03:10;;;;;;;0.00;0.00;;;;;;;;;;5030715;28;20220;-78
2022/09/21 09:05:43;;;;;;;0.00;0.00;;;;;;;;;;5025668;28;20195;-78
2022/09/21 09:08:32;;;;;;;0.00;0.00;;;;;;;;;;5024970;28;20216;-78
2022/09/21 09:11:05;;;;;;;0.00;0.00;;;;;;;;;;5003808;28;20215;-79
2022/09/21 09:13:42;;;;;;;0.00;0.00;;;;;;;;;;5035788;28;20208;-79
2022/09/21 09:16:15;;;;;;;0.00;0.00;;;;;;;;;;5031765;28;20231;-79
2022/09/21 09:18:46;;;;;;;0.00;0.00;;;;;;;;;;5031255;28;20208;-80
2022/09/21 09:21:16;;;;;;;0.00;0.00;;;;;;;;;;5033096;28;20204;-79
2022/09/21 09:23:46;;;;;;;0.00;0.00;;;;;;;;;;5033033;28;20227;-79
2022/09/21 09:26:19;;;;;;;0.00;0.00;;;;;;;;;;5028681;28;20200;-79
2022/09/21 09:28:51;;;;;;;0.00;0.00;;;;;;;;;;5029085;28;20204;-79
2022/09/21 09:31:21;;;;;;;0.00;0.00;;;;;;;;;;5021789;28;20255;-79
2022/09/21 09:33:53;;;;;;;0.00;0.00;;;;;;;;;;5027111;28;20211;-79
2022/09/21 09:36:22;;;;;;;0.00;0.00;;;;;;;;;;5045743;28;20286;-79
2022/09/21 09:38:54;;;;;;;0.00;0.00;;;;;;;;;;5030724;28;20214;-79
2022/09/21 09:41:30;;;;;;;0.00;0.00;;;;;;;;;;5020611;28;20260;-80
2022/09/21 09:44:03;;;;;;;0.00;0.00;;;;;;;;;;5023521;28;20258;-80
2022/09/21 09:46:33;;;;;;;0.00;0.00;;;;;;;;;;5029212;28;20201;-78
2022/09/21 09:49:11;;;;;;;0.00;0.00;;;;;;;;;;5026619;28;20212;-79
2022/09/21 09:51:39;;;;;;;0.00;0.00;;;;;;;;;;5028442;28;20226;-79
2022/09/21 09:54:13;;;;;;;0.00;0.00;;;;;;;;;;5025068;28;20215;-79
2022/09/21 09:56:41;;;;;;;0.00;0.00;;;;;;;;;;5028322;28;20290;-78
2022/09/21 09:59:13;;;;;;;0.00;0.00;;;;;;;;;;5023738;28;20707;-78
2022/09/21 10:01:42;;;;;;;0.00;0.00;;;;;;;;;;5024187;28;20302;-79
2022/09/21 10:04:10;;;;;;;0.00;0.00;;;;;;;;;;5028528;28;20203;-79
2022/09/21 10:06:39;;;;;;;0.00;0.00;;;;;;;;;;5025807;28;20207;-79
2022/09/21 10:09:20;;;;;;;0.00;0.00;;;;;;;;;;5029357;28;20204;-79
2022/09/21 10:11:48;;;;;;;0.00;0.00;;;;;;;;;;5025351;28;20222;-78
2022/09/21 10:14:19;;;;;;;0.00;0.00;;;;;;;;;;5022071;28;20212;-78
2022/09/21 10:16:50;;;;;;;0.00;0.00;;;;;;;;;;5022907;28;20208;-78
2022/09/21 10:19:19;;;;;;;0.00;0.00;;;;;;;;;;5028774;28;20222;-80
2022/09/21 10:21:46;;;;;;;0.00;0.00;;;;;;;;;;5024417;28;20617;-80
2022/09/21 10:24:19;;;;;;;0.00;0.00;;;;;;;;;;5027290;28;20207;-79
2022/09/21 10:26:49;;;;;;;0.00;0.00;;;;;;;;;;5028501;28;20768;-79
2022/09/21 10:29:29;;;;;;;0.00;0.00;;;;;;;;;;5027029;28;20254;-80
2022/09/21 10:31:57;;;;;;;0.00;0.00;;;;;;;;;;5027182;28;20224;-79
2022/09/21 10:34:26;;;;;;;0.00;0.00;;;;;;;;;;5025304;28;20201;-79
2022/09/21 10:36:54;;;;;;;0.00;0.00;;;;;;;;;;5025002;28;20211;-81
2022/09/21 10:39:24;;;;;;;0.00;0.00;;;;;;;;;;5026977;28;20224;-79
2022/09/21 10:41:53;;;;;;;0.00;0.00;;;;;;;;;;5029356;28;20227;-80
2022/09/21 10:44:24;;;;;;;0.00;0.00;;;;;;;;;;5037465;28;20224;-80
2022/09/21 10:46:52;;;;;;;0.00;0.00;;;;;;;;;;5032198;28;20192;-78
2022/09/21 10:49:22;;;;;;;0.00;0.00;;;;;;;;;;5022246;28;20204;-79
2022/09/21 10:51:51;;;;;;;0.00;0.00;;;;;;;;;;5025742;28;20318;-80
2022/09/21 10:54:21;;;;;;;0.00;0.00;;;;;;;;;;5024928;28;20204;-79
2022/09/21 10:56:54;;;;;;;0.00;0.00;;;;;;;;;;5024351;28;20301;-80
2022/09/21 10:59:25;;;;;;;0.00;0.00;;;;;;;;;;5023931;28;20199;-79
2022/09/21 11:01:53;;;;;;;0.00;0.00;;;;;;;;;;5027787;28;20293;-80
2022/09/21 11:04:24;;;;;;;0.00;0.00;;;;;;;;;;5024840;28;20254;-80
2022/09/21 11:06:54;;;;;;;0.00;0.00;;;;;;;;;;5029364;28;20204;-79
2022/09/21 11:09:25;;;;;;;0.00;0.00;;;;;;;;;;5029619;28;20200;-79
2022/09/21 11:11:56;;;;;;;0.00;0.00;;;;;;;;;;5028225;28;20602;-79
2022/09/21 11:14:34;;;;;;;0.00;0.00;;;;;;;;;;5023317;28;20196;-79
2022/09/21 11:17:04;;;;;;;0.00;0.00;;;;;;;;;;5021924;28;20200;-79
2022/09/21 11:19:35;;;;;;;0.00;0.00;;;;;;;;;;5028201;28;20196;-79
2022/09/21 11:22:07;;;;;;;0.00;0.00;;;;;;;;;;5025391;28;20224;-80
2022/09/21 11:24:37;;;;;;;0.00;0.00;;;;;;;;;;5029082;28;20211;-78
2022/09/21 11:27:09;;;;;;;0.00;0.00;;;;;;;;;;5021911;28;20232;-77
2022/09/21 11:29:43;;;;;;;0.00;0.00;;;;;;;;;;5025704;28;20196;-80
2022/09/21 11:32:22;;;;;;;0.00;0.00;;;;;;;;;;5019607;28;20262;-79
2022/09/21 11:35:02;;;;;;;0.00;0.00;;;;;;;;;;5024813;28;20258;-81
2022/09/21 11:37:38;;;;;;;0.00;0.00;;;;;;;;;;5021821;28;20215;-81
2022/09/21 11:40:13;;;;;;;0.00;0.00;;;;;;;;;;5024704;28;20263;-79
2022/09/21 11:42:49;;;;;;;0.00;0.00;;;;;;;;;;5026340;28;20226;-79
2022/09/21 11:45:27;;;;;;;0.00;0.00;;;;;;;;;;5018421;28;20210;-79
2022/09/21 11:48:01;;;;;;;0.00;0.00;;;;;;;;;;5018723;28;20663;-78
2022/09/21 11:50:35;;;;;;;0.00;0.00;;;;;;;;;;5025662;28;20200;-80
2022/09/21 11:53:11;;;;;;;0.00;0.00;;;;;;;;;;5026117;28;20334;-80
2022/09/21 11:55:48;;;;;;;0.00;0.00;;;;;;;;;;5026046;28;20234;-79
2022/09/21 11:58:20;;;;;;;0.00;0.00;;;;;;;;;;5024397;28;20262;-78
2022/09/21 12:00:57;;;;;;;0.00;0.00;;;;;;;;;;5023278;28;20690;-79
2022/09/21 12:03:35;;;;;;;0.00;0.00;;;;;;;;;;5022414;28;20230;-79
2022/09/21 12:06:07;;;;;;;0.00;0.00;;;;;;;;;;5039347;28;20219;-78
2022/09/21 12:08:46;;;;;;;0.00;0.00;;;;;;;;;;5023957;28;20214;-79
2022/09/21 12:11:20;;;;;;;0.00;0.00;;;;;;;;;;5020420;28;20346;-79
2022/09/21 12:13:51;;;;;;;0.00;0.00;;;;;;;;;;5022085;28;20216;-79
2022/09/21 12:16:25;;;;;;;0.00;0.00;;;;;;;;;;5021827;28;20232;-80
2022/09/21 12:18:56;;;;;;;0.00;0.00;;;;;;;;;;5025983;28;20208;-78
2022/09/21 12:21:25;;;;;;;0.00;0.00;;;;;;;;;;5026267;28;20311;-79
2022/09/21 12:23:54;;;;;;;0.00;0.00;;;;;;;;;;5019563;28;20324;-80
2022/09/21 12:26:24;;;;;;;0.00;0.00;;;;;;;;;;5023680;28;20232;-79
2022/09/21 12:28:55;;;;;;;0.00;0.00;;;;;;;;;;5018293;28;20192;-79
2022/09/21 12:31:26;;;;;;;0.00;0.00;;;;;;;;;;5024601;28;20315;-79
2022/09/21 12:33:57;;;;;;;0.00;0.00;;;;;;;;;;5022914;28;20196;-80
2022/09/21 12:36:29;;;;;;;0.00;0.00;;;;;;;;;;5026614;28;20223;-79
2022/09/21 12:38:59;;;;;;;0.00;0.00;;;;;;;;;;5025263;28;20230;-79
2022/09/21 12:41:31;;;;;;;0.00;0.00;;;;;;;;;;5039627;28;20235;-79
2022/09/21 12:44:03;;;;;;;0.00;0.00;;;;;;;;;;5020601;28;20258;-79
2022/09/21 12:46:35;;;;;;;0.00;0.00;;;;;;;;;;5026286;28;20196;-79
2022/09/21 12:49:09;;;;;;;0.00;0.00;;;;;;;;;;5028764;28;20200;-79
2022/09/21 12:51:39;;;;;;;0.00;0.00;;;;;;;;;;5023651;28;20235;-79
2022/09/21 12:54:09;;;;;;;0.00;0.00;;;;;;;;;;5026291;28;20196;-80
2022/09/21 12:56:42;;;;;;;0.00;0.00;;;;;;;;;;5021954;28;20212;-79
2022/09/21 12:59:17;;;;;;;0.00;0.00;;;;;;;;;;5028169;28;20211;-79
2022/09/21 13:01:49;;;;;;;0.00;0.00;;;;;;;;;;5022365;28;20314;-79
2022/09/21 13:04:28;;;;;;;0.00;0.00;;;;;;;;;;5030508;28;20223;-80
2022/09/21 13:07:15;;;;;;;0.00;0.00;;;;;;;;;;5023927;28;20219;-79
2022/09/21 13:09:43;;;;;;;0.00;0.00;;;;;;;;;;5026366;28;20196;-79
2022/09/21 13:12:14;;;;;;;0.00;0.00;;;;;;;;;;5026419;28;20243;-78
2022/09/21 13:14:43;;;;;;;0.00;0.00;;;;;;;;;;5026182;28;20212;-79
2022/09/21 13:17:19;;;;;;;0.00;0.00;;;;;;;;;;5027386;28;20212;-80
2022/09/21 13:19:56;;;;;;;0.00;0.00;;;;;;;;;;5028344;28;20197;-79
2022/09/21 13:22:25;;;;;;;0.00;0.00;;;;;;;;;;5023604;28;20230;-79
2022/09/21 13:25:02;;;;;;;0.00;0.00;;;;;;;;;;5030620;28;20200;-79
2022/09/21 13:27:48;;;;;;;0.00;0.00;;;;;;;;;;5030149;28;20227;-79
2022/09/21 13:30:23;;;;;;;0.00;0.00;;;;;;;;;;5027105;28;20733;-78
2022/09/21 13:32:53;;;;;;;0.00;0.00;;;;;;;;;;5027472;28;20219;-79
2022/09/21 13:35:40;;;;;;;0.00;0.00;;;;;;;;;;5023341;28;20223;-80
2022/09/21 13:38:23;;;;;;;0.00;0.00;;;;;;;;;;5023908;28;20207;-79
2022/09/21 13:40:57;;;;;;;0.00;0.00;;;;;;;;;;5026237;28;20227;-79
2022/09/21 13:43:55;;;;;;;0.00;0.00;;;;;;;;;;5026785;28;20267;-79
2022/09/21 13:46:47;;;;;;;0.00;0.00;;;;;;;;;;5029524;28;20223;-80
2022/09/21 13:49:19;;;;;;;0.00;0.00;;;;;;;;;;5033605;28;20207;-80
2022/09/21 13:51:52;;;;;;;0.00;0.00;;;;;;;;;;5037546;28;20227;-80
2022/09/21 13:54:21;;;;;;;0.00;0.00;;;;;;;;;;5030468;28;20290;-78
2022/09/21 13:56:57;;;;;;;0.00;0.00;;;;;;;;;;5035578;28;20231;-80
2022/09/21 13:59:26;;;;;;;0.00;0.00;;;;;;;;;;5027691;28;20223;-80
2022/09/21 14:01:56;;;;;;;0.00;0.00;;;;;;;;;;5027273;28;20212;-78
2022/09/21 14:04:26;;;;;;;0.00;0.00;;;;;;;;;;5026757;28;20210;-79
2022/09/21 14:06:55;;;;;;;0.00;0.00;;;;;;;;;;5026408;28;20207;-79
2022/09/21 14:09:25;;;;;;;0.00;0.00;;;;;;;;;;5038292;28;20200;-80
2022/09/21 14:11:57;;;;;;;0.00;0.00;;;;;;;;;;5033257;28;20322;-80
2022/09/21 14:14:27;;;;;;;0.00;0.00;;;;;;;;;;5032524;28;20200;-79
2022/09/21 14:16:56;;;;;;;0.00;0.00;;;;;;;;;;5030512;28;20223;-80
2022/09/21 14:19:42;;;;;;;0.00;0.00;;;;;;;;;;5050594;28;20235;-80
2022/09/21 14:22:29;;;;;;;0.00;0.00;;;;;;;;;;5023792;28;20227;-81
2022/09/21 14:25:12;;;;;;;0.00;0.00;;;;;;;;;;5021775;28;20203;-78
2022/09/21 14:27:44;;;;;;;0.00;0.00;;;;;;;;;;5023738;28;20231;-79
2022/09/21 14:30:20;;;;;;;0.00;0.00;;;;;;;;;;5027305;28;20228;-79
2022/09/21 14:32:52;;;;;;;0.00;0.00;;;;;;;;;;5023748;28;20306;-79
2022/09/21 14:35:22;;;;;;;0.00;0.00;;;;;;;;;;5025823;28;20204;-79
2022/09/21 14:37:51;;;;;;;0.00;0.00;;;;;;;;;;5022499;28;20699;-78
2022/09/21 14:40:22;;;;;;;0.00;0.00;;;;;;;;;;5025153;28;20212;-80
2022/09/21 14:42:52;;;;;;;0.00;0.00;;;;;;;;;;5026972;28;20224;-78
2022/09/21 14:45:23;;;;;;;0.00;0.00;;;;;;;;;;5026340;28;20295;-78
2022/09/21 14:47:57;;;;;;;0.00;0.00;;;;;;;;;;5021622;28;20196;-79
2022/09/21 14:50:31;;;;;;;0.00;0.00;;;;;;;;;;5026712;28;20209;-81
2022/09/21 14:53:09;;;;;;;0.00;0.00;;;;;;;;;;5024087;28;20273;-79
2022/09/21 14:55:45;;;;;;;0.00;0.00;;;;;;;;;;5027603;28;20204;-79
2022/09/21 14:58:24;;;;;;;0.00;0.00;;;;;;;;;;5027226;28;20195;-79
2022/09/21 15:00:53;;;;;;;0.00;0.00;;;;;;;;;;5027750;28;20440;-79
2022/09/21 15:03:39;;;;;;;0.00;0.00;;;;;;;;;;5027837;28;20254;-78
2022/09/21 15:11:51;;;;;;;0.00;0.00;;;;;;;;;;5024614;28;20266;-79